sensor_id;sensor_type;location;lat;lon;timestamp;pressure;altitude;pressure_sealevel;temperature;humidity
68656;BME280;55638;51.122;13.606;2022-10-19T00:02:36;101199.56;;;9.34;63.83
68656;BME280;55638;51.122;13.606;2022-10-19T00:04:08;101197.09;;;9.31;63.81
68656;BME280;55638;51.122;13.606;2022-10-19T00:05:40;101198.34;;;9.25;63.81
68656;BME280;55638;51.122;13.606;2022-10-19T00:07:12;101198.56;;;9.22;63.88
68656;BME280;55638;51.122;13.606;2022-10-19T00:08:43;101199.72;;;9.18;64.00
68656;BME280;55638;51.122;13.606;2022-10-19T00:10:15;101201.78;;;9.14;64.00
68656;BME280;55638;51.122;13.606;2022-10-19T00:11:47;101205.63;;;9.10;63.92
68656;BME280;55638;51.122;13.606;2022-10-19T00:13:19;101200.53;;;9.06;63.88
68656;BME280;55638;51.122;13.606;2022-10-19T00:14:51;101200.75;;;9.03;63.87
68656;BME280;55638;51.122;13.606;2022-10-19T00:16:23;101202.88;;;8.97;63.88
68656;BME280;55638;51.122;13.606;2022-10-19T00:17:55;101206.72;;;8.93;63.92
68656;BME280;55638;51.122;13.606;2022-10-19T00:19:27;101209.63;;;8.90;63.78
68656;BME280;55638;51.122;13.606;2022-10-19T00:21:06;101206.38;;;8.85;63.82
68656;BME280;55638;51.122;13.606;2022-10-19T00:22:38;101210.22;;;8.81;63.90
68656;BME280;55638;51.122;13.606;2022-10-19T00:24:10;101213.13;;;8.78;64.10
68656;BME280;55638;51.122;13.606;2022-10-19T00:25:41;101210.72;;;8.73;63.99
68656;BME280;55638;51.122;13.606;2022-10-19T00:27:13;101214.59;;;8.69;64.24
68656;BME280;55638;51.122;13.606;2022-10-19T00:28:45;101210.38;;;8.65;64.07
68656;BME280;55638;51.122;13.606;2022-10-19T00:30:17;101218.66;;;8.62;64.15
68656;BME280;55638;51.122;13.606;2022-10-19T00:31:49;101215.28;;;8.59;64.00
68656;BME280;55638;51.122;13.606;2022-10-19T00:33:21;101218.19;;;8.56;63.92
68656;BME280;55638;51.122;13.606;2022-10-19T00:34:53;101216.63;;;8.51;63.89
68656;BME280;55638;51.122;13.606;2022-10-19T00:36:29;101222.19;;;8.48;63.95
68656;BME280;55638;51.122;13.606;2022-10-19T00:38:01;101213.47;;;8.45;63.92
68656;BME280;55638;51.122;13.606;2022-10-19T00:39:33;101220.00;;;8.41;64.04
68656;BME280;55638;51.122;13.606;2022-10-19T00:41:04;101217.50;;;8.38;64.05
68656;BME280;55638;51.122;13.606;2022-10-19T00:42:36;101218.66;;;8.34;64.09
68656;BME280;55638;51.122;13.606;2022-10-19T00:45:42;101218.03;;;8.28;64.13
68656;BME280;55638;51.122;13.606;2022-10-19T00:47:14;101213.72;;;8.26;64.36
68656;BME280;55638;51.122;13.606;2022-10-19T00:48:46;101213.03;;;8.22;64.41
68656;BME280;55638;51.122;13.606;2022-10-19T00:50:19;101216.69;;;8.21;64.60
68656;BME280;55638;51.122;13.606;2022-10-19T00:52:01;101216.81;;;8.20;64.42
68656;BME280;55638;51.122;13.606;2022-10-19T00:53:33;101215.06;;;8.19;64.51
68656;BME280;55638;51.122;13.606;2022-10-19T00:55:06;101210.72;;;8.16;64.59
68656;BME280;55638;51.122;13.606;2022-10-19T00:56:38;101207.19;;;8.16;64.47
68656;BME280;55638;51.122;13.606;2022-10-19T00:58:11;101209.97;;;8.14;64.33
68656;BME280;55638;51.122;13.606;2022-10-19T00:59:43;101209.19;;;8.12;64.51
68656;BME280;55638;51.122;13.606;2022-10-19T01:01:16;101218.25;;;8.11;64.43
68656;BME280;55638;51.122;13.606;2022-10-19T01:02:49;101214.78;;;8.09;64.39
68656;BME280;55638;51.122;13.606;2022-10-19T01:04:21;101215.81;;;8.06;64.26
68656;BME280;55638;51.122;13.606;2022-10-19T01:05:54;101211.41;;;8.05;64.27
68656;BME280;55638;51.122;13.606;2022-10-19T01:07:26;101214.22;;;8.04;64.29
68656;BME280;55638;51.122;13.606;2022-10-19T01:08:58;101215.16;;;8.03;64.18
68656;BME280;55638;51.122;13.606;2022-10-19T01:15:56;101203.34;;;7.91;64.06
68656;BME280;55638;51.122;13.606;2022-10-19T01:19:27;101202.84;;;7.85;64.20
68656;BME280;55638;51.122;13.606;2022-10-19T01:21:11;101191.41;;;7.81;64.40
68656;BME280;55638;51.122;13.606;2022-10-19T01:24:44;101197.06;;;7.76;64.12
68656;BME280;55638;51.122;13.606;2022-10-19T01:27:52;101193.78;;;7.71;64.19
68656;BME280;55638;51.122;13.606;2022-10-19T01:31:20;101193.19;;;7.66;64.22
68656;BME280;55638;51.122;13.606;2022-10-19T01:32:58;101194.34;;;7.62;64.14
68656;BME280;55638;51.122;13.606;2022-10-19T01:37:47;101192.09;;;7.54;64.00
68656;BME280;55638;51.122;13.606;2022-10-19T01:40:56;101192.38;;;7.50;64.07
68656;BME280;55638;51.122;13.606;2022-10-19T01:45:53;101198.31;;;7.41;64.11
68656;BME280;55638;51.122;13.606;2022-10-19T01:47:27;101193.09;;;7.38;64.17
68656;BME280;55638;51.122;13.606;2022-10-19T01:49:04;101196.75;;;7.36;64.38
68656;BME280;55638;51.122;13.606;2022-10-19T01:50:46;101189.84;;;7.32;64.43
68656;BME280;55638;51.122;13.606;2022-10-19T01:52:20;101186.38;;;7.30;64.43
68656;BME280;55638;51.122;13.606;2022-10-19T01:53:52;101206.16;;;7.29;64.41
68656;BME280;55638;51.122;13.606;2022-10-19T01:55:27;101199.91;;;7.29;64.42
68656;BME280;55638;51.122;13.606;2022-10-19T01:56:59;101203.63;;;7.26;64.39
68656;BME280;55638;51.122;13.606;2022-10-19T01:58:33;101197.47;;;7.24;64.67
68656;BME280;55638;51.122;13.606;2022-10-19T02:00:07;101194.03;;;7.22;64.33
68656;BME280;55638;51.122;13.606;2022-10-19T02:01:45;101203.03;;;7.21;64.42
68656;BME280;55638;51.122;13.606;2022-10-19T02:03:17;101205.81;;;7.20;64.38
68656;BME280;55638;51.122;13.606;2022-10-19T02:04:50;101205.88;;;7.18;64.50
68656;BME280;55638;51.122;13.606;2022-10-19T02:06:22;101200.63;;;7.17;64.55
68656;BME280;55638;51.122;13.606;2022-10-19T02:07:55;101192.63;;;7.15;64.49
68656;BME280;55638;51.122;13.606;2022-10-19T02:09:28;101203.38;;;7.15;64.76
68656;BME280;55638;51.122;13.606;2022-10-19T02:11:01;101195.50;;;7.12;64.61
68656;BME280;55638;51.122;13.606;2022-10-19T02:12:33;101201.75;;;7.12;64.58
68656;BME280;55638;51.122;13.606;2022-10-19T02:14:08;101192.06;;;7.10;64.93
68656;BME280;55638;51.122;13.606;2022-10-19T02:15:42;101191.09;;;7.11;64.91
68656;BME280;55638;51.122;13.606;2022-10-19T02:17:16;101198.28;;;7.10;64.75
68656;BME280;55638;51.122;13.606;2022-10-19T02:18:50;101200.97;;;7.10;64.89
68656;BME280;55638;51.122;13.606;2022-10-19T02:20:22;101190.22;;;7.10;64.78
68656;BME280;55638;51.122;13.606;2022-10-19T02:21:54;101191.09;;;7.11;64.97
68656;BME280;55638;51.122;13.606;2022-10-19T02:23:26;101184.75;;;7.12;64.99
68656;BME280;55638;51.122;13.606;2022-10-19T02:24:58;101188.34;;;7.12;65.09
68656;BME280;55638;51.122;13.606;2022-10-19T02:26:30;101190.91;;;7.14;65.21
68656;BME280;55638;51.122;13.606;2022-10-19T02:28:02;101195.31;;;7.15;65.23
68656;BME280;55638;51.122;13.606;2022-10-19T02:29:35;101196.09;;;7.17;65.33
68656;BME280;55638;51.122;13.606;2022-10-19T02:31:07;101187.94;;;7.19;65.33
68656;BME280;55638;51.122;13.606;2022-10-19T02:32:39;101193.25;;;7.20;65.27
68656;BME280;55638;51.122;13.606;2022-10-19T02:34:12;101193.06;;;7.23;65.35
68656;BME280;55638;51.122;13.606;2022-10-19T02:35:44;101190.28;;;7.25;65.35
68656;BME280;55638;51.122;13.606;2022-10-19T02:37:16;101195.56;;;7.26;65.37
68656;BME280;55638;51.122;13.606;2022-10-19T02:38:50;101193.66;;;7.28;65.38
68656;BME280;55638;51.122;13.606;2022-10-19T02:40:21;101191.75;;;7.30;65.51
68656;BME280;55638;51.122;13.606;2022-10-19T02:41:56;101196.94;;;7.33;65.43
68656;BME280;55638;51.122;13.606;2022-10-19T02:43:32;101200.41;;;7.35;65.58
68656;BME280;55638;51.122;13.606;2022-10-19T02:45:14;101192.25;;;7.37;65.65
68656;BME280;55638;51.122;13.606;2022-10-19T02:47:02;101196.59;;;7.40;65.40
68656;BME280;55638;51.122;13.606;2022-10-19T02:48:36;101203.69;;;7.41;65.51
68656;BME280;55638;51.122;13.606;2022-10-19T02:50:09;101201.84;;;7.41;65.39
68656;BME280;55638;51.122;13.606;2022-10-19T02:53:25;101187.38;;;7.44;65.55
68656;BME280;55638;51.122;13.606;2022-10-19T02:54:57;101195.44;;;7.44;65.33
68656;BME280;55638;51.122;13.606;2022-10-19T02:56:28;101198.91;;;7.46;65.30
68656;BME280;55638;51.122;13.606;2022-10-19T02:58:00;101190.00;;;7.45;65.22
68656;BME280;55638;51.122;13.606;2022-10-19T02:59:32;101190.84;;;7.46;65.36
68656;BME280;55638;51.122;13.606;2022-10-19T03:01:04;101192.56;;;7.47;65.25
68656;BME280;55638;51.122;13.606;2022-10-19T03:02:35;101186.34;;;7.46;65.34
68656;BME280;55638;51.122;13.606;2022-10-19T03:04:07;101188.16;;;7.46;65.02
68656;BME280;55638;51.122;13.606;2022-10-19T03:05:39;101184.59;;;7.45;65.02
68656;BME280;55638;51.122;13.606;2022-10-19T03:07:12;101181.94;;;7.45;64.90
68656;BME280;55638;51.122;13.606;2022-10-19T03:08:45;101185.66;;;7.43;64.81
68656;BME280;55638;51.122;13.606;2022-10-19T03:10:16;101181.13;;;7.43;64.75
68656;BME280;55638;51.122;13.606;2022-10-19T03:11:48;101186.63;;;7.42;64.72
68656;BME280;55638;51.122;13.606;2022-10-19T03:13:20;101184.88;;;7.41;64.66
68656;BME280;55638;51.122;13.606;2022-10-19T03:14:51;101175.16;;;7.38;64.70
68656;BME280;55638;51.122;13.606;2022-10-19T03:16:23;101172.47;;;7.38;64.69
68656;BME280;55638;51.122;13.606;2022-10-19T03:17:55;101175.25;;;7.36;64.50
68656;BME280;55638;51.122;13.606;2022-10-19T03:19:27;101193.28;;;7.34;64.60
68656;BME280;55638;51.122;13.606;2022-10-19T03:21:02;101189.00;;;7.32;64.57
68656;BME280;55638;51.122;13.606;2022-10-19T03:22:34;101183.69;;;7.30;64.60
68656;BME280;55638;51.122;13.606;2022-10-19T03:24:06;101182.91;;;7.28;64.45
68656;BME280;55638;51.122;13.606;2022-10-19T03:25:37;101185.69;;;7.27;64.60
68656;BME280;55638;51.122;13.606;2022-10-19T03:27:09;101188.44;;;7.25;64.55
68656;BME280;55638;51.122;13.606;2022-10-19T03:28:41;101181.34;;;7.24;64.49
68656;BME280;55638;51.122;13.606;2022-10-19T03:30:13;101182.31;;;7.23;64.62
68656;BME280;55638;51.122;13.606;2022-10-19T03:31:44;101183.28;;;7.22;64.63
68656;BME280;55638;51.122;13.606;2022-10-19T03:33:16;101179.81;;;7.20;64.74
68656;BME280;55638;51.122;13.606;2022-10-19T03:34:48;101178.09;;;7.19;64.66
68656;BME280;55638;51.122;13.606;2022-10-19T03:36:35;101180.78;;;7.19;65.03
68656;BME280;55638;51.122;13.606;2022-10-19T03:38:08;101183.53;;;7.18;65.07
68656;BME280;55638;51.122;13.606;2022-10-19T03:39:39;101189.69;;;7.20;65.08
68656;BME280;55638;51.122;13.606;2022-10-19T03:41:11;101188.72;;;7.21;65.13
68656;BME280;55638;51.122;13.606;2022-10-19T03:42:43;101193.13;;;7.22;65.15
68656;BME280;55638;51.122;13.606;2022-10-19T03:44:14;101202.00;;;7.24;65.39
68656;BME280;55638;51.122;13.606;2022-10-19T03:45:46;101200.94;;;7.26;65.46
68656;BME280;55638;51.122;13.606;2022-10-19T03:47:18;101205.34;;;7.27;65.32
68656;BME280;55638;51.122;13.606;2022-10-19T03:48:49;101198.94;;;7.30;65.49
68656;BME280;55638;51.122;13.606;2022-10-19T03:50:21;101199.63;;;7.33;65.49
68656;BME280;55638;51.122;13.606;2022-10-19T03:51:53;101205.78;;;7.35;65.50
68656;BME280;55638;51.122;13.606;2022-10-19T03:53:24;101201.16;;;7.38;65.54
68656;BME280;55638;51.122;13.606;2022-10-19T03:54:56;101202.81;;;7.40;65.42
68656;BME280;55638;51.122;13.606;2022-10-19T03:56:28;101198.22;;;7.42;65.57
68656;BME280;55638;51.122;13.606;2022-10-19T03:58:00;101209.75;;;7.44;65.63
68656;BME280;55638;51.122;13.606;2022-10-19T03:59:32;101213.09;;;7.48;65.54
68656;BME280;55638;51.122;13.606;2022-10-19T04:01:09;101211.31;;;7.48;65.48
68656;BME280;55638;51.122;13.606;2022-10-19T04:02:41;101204.00;;;7.50;65.45
68656;BME280;55638;51.122;13.606;2022-10-19T04:04:16;101208.41;;;7.51;65.46
68656;BME280;55638;51.122;13.606;2022-10-19T04:05:48;101203.81;;;7.53;65.52
68656;BME280;55638;51.122;13.606;2022-10-19T04:07:19;101205.47;;;7.56;65.49
68656;BME280;55638;51.122;13.606;2022-10-19T04:08:51;101209.88;;;7.57;65.54
68656;BME280;55638;51.122;13.606;2022-10-19T04:10:23;101200.88;;;7.58;65.38
68656;BME280;55638;51.122;13.606;2022-10-19T04:11:54;101200.88;;;7.58;65.34
68656;BME280;55638;51.122;13.606;2022-10-19T04:13:26;101202.59;;;7.59;65.31
68656;BME280;55638;51.122;13.606;2022-10-19T04:14:58;101201.63;;;7.60;65.32
68656;BME280;55638;51.122;13.606;2022-10-19T04:16:30;101198.94;;;7.60;65.30
68656;BME280;55638;51.122;13.606;2022-10-19T04:18:02;101202.47;;;7.60;65.20
68656;BME280;55638;51.122;13.606;2022-10-19T04:19:34;101208.72;;;7.61;65.22
68656;BME280;55638;51.122;13.606;2022-10-19T04:21:05;101207.78;;;7.62;65.22
68656;BME280;55638;51.122;13.606;2022-10-19T04:22:37;101210.47;;;7.62;65.27
68656;BME280;55638;51.122;13.606;2022-10-19T04:24:10;101206.94;;;7.62;65.07
68656;BME280;55638;51.122;13.606;2022-10-19T04:25:42;101207.78;;;7.62;65.24
68656;BME280;55638;51.122;13.606;2022-10-19T04:27:14;101207.78;;;7.62;65.19
68656;BME280;55638;51.122;13.606;2022-10-19T04:28:46;101204.13;;;7.63;65.12
68656;BME280;55638;51.122;13.606;2022-10-19T04:30:17;101208.53;;;7.64;65.27
68656;BME280;55638;51.122;13.606;2022-10-19T04:31:49;101206.75;;;7.65;65.22
68656;BME280;55638;51.122;13.606;2022-10-19T04:33:22;101211.16;;;7.66;65.17
68656;BME280;55638;51.122;13.606;2022-10-19T04:34:53;101209.50;;;7.63;65.13
68656;BME280;55638;51.122;13.606;2022-10-19T04:36:25;101221.97;;;7.64;64.98
68656;BME280;55638;51.122;13.606;2022-10-19T04:37:57;101214.88;;;7.63;65.15
68656;BME280;55638;51.122;13.606;2022-10-19T04:39:29;101218.53;;;7.62;65.05
68656;BME280;55638;51.122;13.606;2022-10-19T04:41:11;101222.94;;;7.63;64.92
68656;BME280;55638;51.122;13.606;2022-10-19T04:42:43;101223.06;;;7.62;65.12
68656;BME280;55638;51.122;13.606;2022-10-19T04:44:15;101223.91;;;7.62;65.00
68656;BME280;55638;51.122;13.606;2022-10-19T04:45:46;101224.78;;;7.63;64.98
68656;BME280;55638;51.122;13.606;2022-10-19T04:47:18;101226.59;;;7.62;65.04
68656;BME280;55638;51.122;13.606;2022-10-19T04:48:50;101229.38;;;7.60;65.03
68656;BME280;55638;51.122;13.606;2022-10-19T04:50:22;101233.88;;;7.60;65.02
68656;BME280;55638;51.122;13.606;2022-10-19T04:51:59;101224.84;;;7.61;64.96
68656;BME280;55638;51.122;13.606;2022-10-19T04:53:31;101231.19;;;7.60;65.17
68656;BME280;55638;51.122;13.606;2022-10-19T04:55:03;101229.38;;;7.60;65.06
68656;BME280;55638;51.122;13.606;2022-10-19T04:56:34;101229.38;;;7.60;65.05
68656;BME280;55638;51.122;13.606;2022-10-19T04:58:06;101231.19;;;7.60;65.14
68656;BME280;55638;51.122;13.606;2022-10-19T04:59:38;101228.50;;;7.60;65.21
68656;BME280;55638;51.122;13.606;2022-10-19T05:01:10;101223.91;;;7.62;65.24
68656;BME280;55638;51.122;13.606;2022-10-19T05:02:43;101220.38;;;7.62;65.24
68656;BME280;55638;51.122;13.606;2022-10-19T05:04:15;101221.31;;;7.60;65.26
68656;BME280;55638;51.122;13.606;2022-10-19T05:05:47;101230.22;;;7.61;65.18
68656;BME280;55638;51.122;13.606;2022-10-19T05:07:19;101224.84;;;7.61;65.11
68656;BME280;55638;51.122;13.606;2022-10-19T05:08:50;101231.13;;;7.62;65.11
68656;BME280;55638;51.122;13.606;2022-10-19T05:10:22;101227.53;;;7.61;65.10
68656;BME280;55638;51.122;13.606;2022-10-19T05:11:54;101223.91;;;7.62;65.11
68656;BME280;55638;51.122;13.606;2022-10-19T05:13:25;101226.59;;;7.62;65.16
68656;BME280;55638;51.122;13.606;2022-10-19T05:14:57;101235.53;;;7.63;65.24
68656;BME280;55638;51.122;13.606;2022-10-19T05:16:29;101220.25;;;7.63;65.13
68656;BME280;55638;51.122;13.606;2022-10-19T05:18:01;101225.63;;;7.63;65.01
68656;BME280;55638;51.122;13.606;2022-10-19T05:19:32;101213.16;;;7.62;65.04
68656;BME280;55638;51.122;13.606;2022-10-19T05:22:36;101224.84;;;7.61;65.17
68656;BME280;55638;51.122;13.606;2022-10-19T05:24:09;101222.16;;;7.61;65.00
68656;BME280;55638;51.122;13.606;2022-10-19T05:25:42;101224.84;;;7.61;64.98
68656;BME280;55638;51.122;13.606;2022-10-19T05:27:13;101225.81;;;7.60;65.05
68656;BME280;55638;51.122;13.606;2022-10-19T05:28:48;101230.34;;;7.59;64.99
68656;BME280;55638;51.122;13.606;2022-10-19T05:30:21;101235.72;;;7.59;65.06
68656;BME280;55638;51.122;13.606;2022-10-19T05:31:52;101228.50;;;7.60;65.15
68656;BME280;55638;51.122;13.606;2022-10-19T05:33:24;101227.75;;;7.58;65.06
68656;BME280;55638;51.122;13.606;2022-10-19T05:34:56;101234.84;;;7.59;65.07
68656;BME280;55638;51.122;13.606;2022-10-19T05:36:29;101230.34;;;7.59;65.22
68656;BME280;55638;51.122;13.606;2022-10-19T05:38:02;101229.47;;;7.59;65.28
68656;BME280;55638;51.122;13.606;2022-10-19T05:39:34;101233.03;;;7.59;65.09
68656;BME280;55638;51.122;13.606;2022-10-19T05:41:06;101222.28;;;7.59;65.05
68656;BME280;55638;51.122;13.606;2022-10-19T05:42:38;101231.19;;;7.60;65.10
68656;BME280;55638;51.122;13.606;2022-10-19T05:44:14;101233.88;;;7.60;65.22
68656;BME280;55638;51.122;13.606;2022-10-19T05:45:46;101236.56;;;7.60;65.02
68656;BME280;55638;51.122;13.606;2022-10-19T05:47:17;101240.13;;;7.60;65.24
68656;BME280;55638;51.122;13.606;2022-10-19T05:48:49;101241.09;;;7.59;65.02
68656;BME280;55638;51.122;13.606;2022-10-19T05:50:21;101240.22;;;7.59;65.05
68656;BME280;55638;51.122;13.606;2022-10-19T05:51:53;101239.25;;;7.60;65.14
68656;BME280;55638;51.122;13.606;2022-10-19T05:53:24;101241.00;;;7.61;65.02
68656;BME280;55638;51.122;13.606;2022-10-19T05:54:56;101241.97;;;7.60;65.08
68656;BME280;55638;51.122;13.606;2022-10-19T05:56:29;101241.00;;;7.61;65.23
68656;BME280;55638;51.122;13.606;2022-10-19T05:58:01;101238.31;;;7.61;65.25
68656;BME280;55638;51.122;13.606;2022-10-19T05:59:32;101248.13;;;7.62;65.22
68656;BME280;55638;51.122;13.606;2022-10-19T06:01:04;101240.06;;;7.62;65.17
68656;BME280;55638;51.122;13.606;2022-10-19T06:02:36;101236.41;;;7.63;65.29
68656;BME280;55638;51.122;13.606;2022-10-19T06:04:08;101247.94;;;7.65;65.37
68656;BME280;55638;51.122;13.606;2022-10-19T06:05:41;101253.22;;;7.67;65.35
68656;BME280;55638;51.122;13.606;2022-10-19T06:07:13;101258.50;;;7.68;65.41
68656;BME280;55638;51.122;13.606;2022-10-19T06:08:44;101253.03;;;7.70;65.48
68656;BME280;55638;51.122;13.606;2022-10-19T06:10:16;101248.44;;;7.72;65.31
68656;BME280;55638;51.122;13.606;2022-10-19T06:11:48;101249.28;;;7.72;65.40
68656;BME280;55638;51.122;13.606;2022-10-19T06:13:20;101240.25;;;7.73;65.32
68656;BME280;55638;51.122;13.606;2022-10-19T06:14:51;101239.31;;;7.74;65.18
68656;BME280;55638;51.122;13.606;2022-10-19T06:16:24;101239.31;;;7.74;65.25
68656;BME280;55638;51.122;13.606;2022-10-19T06:17:56;101235.66;;;7.75;65.09
68656;BME280;55638;51.122;13.606;2022-10-19T06:19:27;101242.78;;;7.76;64.88
68656;BME280;55638;51.122;13.606;2022-10-19T06:21:06;101249.97;;;7.76;64.87
68656;BME280;55638;51.122;13.606;2022-10-19T06:22:38;101254.50;;;7.75;64.66
68656;BME280;55638;51.122;13.606;2022-10-19T06:24:10;101242.94;;;7.73;64.80
68656;BME280;55638;51.122;13.606;2022-10-19T06:25:42;101254.69;;;7.72;64.71
68656;BME280;55638;51.122;13.606;2022-10-19T06:27:13;101256.50;;;7.72;64.68
68656;BME280;55638;51.122;13.606;2022-10-19T06:28:46;101254.75;;;7.71;64.76
68656;BME280;55638;51.122;13.606;2022-10-19T06:30:17;101258.41;;;7.70;64.73
68656;BME280;55638;51.122;13.606;2022-10-19T06:31:49;101257.53;;;7.69;64.90
68656;BME280;55638;51.122;13.606;2022-10-19T06:33:22;101264.66;;;7.70;64.89
68656;BME280;55638;51.122;13.606;2022-10-19T06:34:54;101261.09;;;7.70;65.12
68656;BME280;55638;51.122;13.606;2022-10-19T06:36:27;101268.13;;;7.72;65.13
68656;BME280;55638;51.122;13.606;2022-10-19T06:37:59;101268.97;;;7.73;65.18
68656;BME280;55638;51.122;13.606;2022-10-19T06:39:31;101265.31;;;7.74;65.33
68656;BME280;55638;51.122;13.606;2022-10-19T06:41:03;101271.41;;;7.77;65.41
68656;BME280;55638;51.122;13.606;2022-10-19T06:42:35;101270.34;;;7.80;65.56
68656;BME280;55638;51.122;13.606;2022-10-19T06:44:10;101269.31;;;7.82;65.71
68656;BME280;55638;51.122;13.606;2022-10-19T06:45:41;101278.16;;;7.85;65.78
68656;BME280;55638;51.122;13.606;2022-10-19T06:47:13;101272.47;;;7.89;65.78
68656;BME280;55638;51.122;13.606;2022-10-19T06:48:48;101279.41;;;7.93;65.79
68656;BME280;55638;51.122;13.606;2022-10-19T06:50:21;101272.00;;;7.97;65.78
68656;BME280;55638;51.122;13.606;2022-10-19T06:51:53;101272.59;;;8.02;65.82
68656;BME280;55638;51.122;13.606;2022-10-19T06:53:25;101275.91;;;8.07;65.81
68656;BME280;55638;51.122;13.606;2022-10-19T06:54:57;101275.78;;;8.09;65.70
68656;BME280;55638;51.122;13.606;2022-10-19T06:56:29;101276.47;;;8.12;65.58
68656;BME280;55638;51.122;13.606;2022-10-19T06:58:00;101277.06;;;8.17;65.66
68656;BME280;55638;51.122;13.606;2022-10-19T06:59:32;101276.88;;;8.20;65.66
68656;BME280;55638;51.122;13.606;2022-10-19T07:01:04;101280.25;;;8.24;65.58
68656;BME280;55638;51.122;13.606;2022-10-19T07:02:38;101273.81;;;8.26;65.70
68656;BME280;55638;51.122;13.606;2022-10-19T07:04:10;101276.25;;;8.31;65.71
68656;BME280;55638;51.122;13.606;2022-10-19T07:05:41;101283.16;;;8.35;65.56
68656;BME280;55638;51.122;13.606;2022-10-19T07:07:13;101282.13;;;8.38;65.62
68656;BME280;55638;51.122;13.606;2022-10-19T07:08:45;101289.03;;;8.42;65.61
68656;BME280;55638;51.122;13.606;2022-10-19T07:10:16;101295.00;;;8.47;65.64
68656;BME280;55638;51.122;13.606;2022-10-19T07:11:48;101289.44;;;8.50;65.61
68656;BME280;55638;51.122;13.606;2022-10-19T07:13:20;101283.75;;;8.55;65.55
68656;BME280;55638;51.122;13.606;2022-10-19T07:14:52;101290.69;;;8.59;65.53
68656;BME280;55638;51.122;13.606;2022-10-19T07:16:25;101296.75;;;8.62;65.51
68656;BME280;55638;51.122;13.606;2022-10-19T07:17:57;101296.56;;;8.65;65.38
68656;BME280;55638;51.122;13.606;2022-10-19T07:19:29;101296.38;;;8.68;65.38
68656;BME280;55638;51.122;13.606;2022-10-19T07:21:02;101306.06;;;8.71;65.12
68656;BME280;55638;51.122;13.606;2022-10-19T07:22:34;101301.44;;;8.73;65.19
68656;BME280;55638;51.122;13.606;2022-10-19T07:24:06;101297.69;;;8.75;65.09
68656;BME280;55638;51.122;13.606;2022-10-19T07:25:38;101298.44;;;8.78;65.09
68656;BME280;55638;51.122;13.606;2022-10-19T07:27:09;101301.06;;;8.79;64.96
68656;BME280;55638;51.122;13.606;2022-10-19T07:28:42;101301.81;;;8.81;64.98
68656;BME280;55638;51.122;13.606;2022-10-19T07:30:14;101304.31;;;8.84;65.04
68656;BME280;55638;51.122;13.606;2022-10-19T07:31:46;101304.22;;;8.86;64.92
68656;BME280;55638;51.122;13.606;2022-10-19T07:33:17;101309.44;;;8.89;65.03
68656;BME280;55638;51.122;13.606;2022-10-19T07:34:49;101311.16;;;8.90;65.09
68656;BME280;55638;51.122;13.606;2022-10-19T07:36:21;101307.41;;;8.92;65.04
68656;BME280;55638;51.122;13.606;2022-10-19T07:37:53;101311.53;;;8.98;65.25
68656;BME280;55638;51.122;13.606;2022-10-19T07:39:24;101319.50;;;8.99;65.20
68656;BME280;55638;51.122;13.606;2022-10-19T07:41:05;101313.06;;;9.02;65.00
68656;BME280;55638;51.122;13.606;2022-10-19T07:42:37;101311.91;;;9.06;65.22
68656;BME280;55638;51.122;13.606;2022-10-19T07:44:09;101313.63;;;9.07;64.86
68656;BME280;55638;51.122;13.606;2022-10-19T07:45:43;101311.69;;;9.09;64.95
68656;BME280;55638;51.122;13.606;2022-10-19T07:47:15;101317.75;;;9.13;64.92
68656;BME280;55638;51.122;13.606;2022-10-19T07:48:47;101314.97;;;9.14;64.89
68656;BME280;55638;51.122;13.606;2022-10-19T07:50:19;101318.41;;;9.16;64.85
68656;BME280;55638;51.122;13.606;2022-10-19T07:51:50;101317.34;;;9.19;64.79
68656;BME280;55638;51.122;13.606;2022-10-19T07:53:26;101315.31;;;9.22;64.93
68656;BME280;55638;51.122;13.606;2022-10-19T07:54:58;101321.56;;;9.23;64.52
68656;BME280;55638;51.122;13.606;2022-10-19T07:56:31;101312.34;;;9.27;64.81
68656;BME280;55638;51.122;13.606;2022-10-19T07:58:02;101313.94;;;9.30;64.62
68656;BME280;55638;51.122;13.606;2022-10-19T07:59:34;101317.53;;;9.30;64.52
68656;BME280;55638;51.122;13.606;2022-10-19T08:01:07;101313.75;;;9.33;64.52
68656;BME280;55638;51.122;13.606;2022-10-19T08:02:39;101325.31;;;9.35;64.51
68656;BME280;55638;51.122;13.606;2022-10-19T08:04:30;101312.59;;;9.37;64.61
68656;BME280;55638;51.122;13.606;2022-10-19T08:06:22;101324.91;;;9.41;64.54
68656;BME280;55638;51.122;13.606;2022-10-19T08:07:54;101316.81;;;9.41;64.38
68656;BME280;55638;51.122;13.606;2022-10-19T08:09:26;101328.34;;;9.43;64.42
68656;BME280;55638;51.122;13.606;2022-10-19T08:11:19;101327.28;;;9.45;64.66
68656;BME280;55638;51.122;13.606;2022-10-19T08:12:51;101321.66;;;9.50;64.68
68656;BME280;55638;51.122;13.606;2022-10-19T08:14:23;101329.53;;;9.53;64.74
68656;BME280;55638;51.122;13.606;2022-10-19T08:15:55;101336.47;;;9.57;64.82
68656;BME280;55638;51.122;13.606;2022-10-19T08:17:26;101334.63;;;9.58;64.09
68656;BME280;55638;51.122;13.606;2022-10-19T08:18:59;101336.13;;;9.62;64.43
68656;BME280;55638;51.122;13.606;2022-10-19T08:20:31;101328.81;;;9.64;64.20
68656;BME280;55638;51.122;13.606;2022-10-19T08:22:02;101337.56;;;9.67;64.17
68656;BME280;55638;51.122;13.606;2022-10-19T08:23:34;101331.00;;;9.72;64.51
68656;BME280;55638;51.122;13.606;2022-10-19T08:25:06;101339.88;;;9.74;63.70
68656;BME280;55638;51.122;13.606;2022-10-19T08:26:38;101338.78;;;9.76;63.95
68656;BME280;55638;51.122;13.606;2022-10-19T08:28:10;101335.91;;;9.79;64.01
68656;BME280;55638;51.122;13.606;2022-10-19T08:29:42;101336.63;;;9.81;63.78
68656;BME280;55638;51.122;13.606;2022-10-19T08:31:20;101343.47;;;9.87;64.03
68656;BME280;55638;51.122;13.606;2022-10-19T08:32:52;101333.53;;;9.87;63.94